createdAt,value
2017-12-05T00:01:36.176Z,98.16
2017-12-05T00:04:04.109Z,98.15
2017-12-05T00:06:32.511Z,98.17
2017-12-05T00:09:01.030Z,98.14
2017-12-05T00:11:28.688Z,98.18
2017-12-05T00:13:56.353Z,98.15
2017-12-05T00:16:24.078Z,98.06
2017-12-05T00:18:53.483Z,97.98
2017-12-05T00:21:21.208Z,97.91
2017-12-05T00:23:48.892Z,97.88
2017-12-05T00:26:16.683Z,97.80
2017-12-05T00:28:44.369Z,97.71
2017-12-05T00:31:12.386Z,97.73
2017-12-05T00:33:40.072Z,97.63
2017-12-05T00:36:07.910Z,97.58
2017-12-05T00:38:37.058Z,97.61
2017-12-05T00:41:05.016Z,97.55
2017-12-05T00:43:33.751Z,97.44
2017-12-05T00:46:01.650Z,97.44
2017-12-05T00:48:29.388Z,97.55
2017-12-05T00:50:57.322Z,97.44
2017-12-05T00:53:25.834Z,97.46
2017-12-05T00:55:57.431Z,97.45
2017-12-05T00:58:25.148Z,97.36
2017-12-05T01:00:53.040Z,97.32
2017-12-05T01:03:22.364Z,97.32
2017-12-05T01:05:50.078Z,97.24
2017-12-05T01:08:17.754Z,97.31
2017-12-05T01:10:47.106Z,97.30
2017-12-05T01:13:14.830Z,97.29
2017-12-05T01:15:42.482Z,97.22
2017-12-05T01:18:10.148Z,97.14
2017-12-05T01:20:39.629Z,97.18
2017-12-05T01:23:09.749Z,97.19
2017-12-05T01:25:37.434Z,97.19
2017-12-05T01:28:05.132Z,97.11
2017-12-05T01:30:33.969Z,97.02
2017-12-05T01:33:01.750Z,96.95
2017-12-05T01:35:29.404Z,96.88
2017-12-05T01:37:57.528Z,96.78
2017-12-05T01:40:27.087Z,96.79
2017-12-05T01:42:54.771Z,96.77
2017-12-05T01:45:22.493Z,96.64
2017-12-05T01:47:50.315Z,96.61
2017-12-05T01:50:17.983Z,96.54
2017-12-05T01:52:45.647Z,96.57
2017-12-05T01:55:14.482Z,96.50
2017-12-05T01:57:42.109Z,96.43
2017-12-05T02:00:09.770Z,96.45
2017-12-05T02:02:38.250Z,96.38
2017-12-05T02:05:05.947Z,96.35
2017-12-05T02:07:33.599Z,96.27
2017-12-05T02:10:01.297Z,96.28
2017-12-05T02:12:29.000Z,96.18
2017-12-05T02:14:56.667Z,96.28
2017-12-05T02:17:24.351Z,96.25
2017-12-05T02:19:54.620Z,96.24
2017-12-05T02:22:22.310Z,96.29
2017-12-05T02:24:49.962Z,96.33
2017-12-05T02:27:17.601Z,96.22
2017-12-05T02:29:45.329Z,96.20
2017-12-05T02:32:12.996Z,96.25
2017-12-05T02:34:40.668Z,96.17
2017-12-05T02:37:08.379Z,96.07
2017-12-05T02:39:36.123Z,96.06
2017-12-05T02:42:03.812Z,96.11
2017-12-05T02:44:31.472Z,96.10
2017-12-05T02:46:59.180Z,95.90
2017-12-05T02:49:26.815Z,95.81
2017-12-05T02:51:54.512Z,95.87
2017-12-05T02:54:22.160Z,95.84
2017-12-05T02:56:49.803Z,95.69
2017-12-05T02:59:17.510Z,95.79
2017-12-05T03:01:45.376Z,95.84
2017-12-05T03:04:13.173Z,95.99
2017-12-05T03:06:42.447Z,96.08
2017-12-05T03:09:10.261Z,96.14
2017-12-05T03:11:37.943Z,96.31
2017-12-05T03:14:05.608Z,96.29
2017-12-05T03:16:33.993Z,96.33
2017-12-05T03:19:01.663Z,96.37
2017-12-05T03:21:29.339Z,96.41
2017-12-05T03:23:58.833Z,96.48
2017-12-05T03:26:26.651Z,96.40
2017-12-05T03:28:54.319Z,96.46
2017-12-05T03:31:22.340Z,96.43
2017-12-05T03:33:50.019Z,96.47
2017-12-05T03:36:17.660Z,96.51
2017-12-05T03:38:46.091Z,96.50
2017-12-05T03:41:13.735Z,96.51
2017-12-05T03:43:41.563Z,96.53
2017-12-05T03:46:09.224Z,96.51
2017-12-05T03:48:36.911Z,96.40
2017-12-05T03:51:05.065Z,96.58
2017-12-05T03:53:32.783Z,96.58
2017-12-05T03:56:01.151Z,96.60
2017-12-05T03:58:30.621Z,96.52
2017-12-05T04:00:59.083Z,96.56
2017-12-05T04:03:26.805Z,96.49
2017-12-05T04:05:56.361Z,96.32
2017-12-05T04:08:26.726Z,96.25
2017-12-05T04:10:56.978Z,96.25
2017-12-05T04:13:24.727Z,96.20
2017-12-05T04:15:53.208Z,96.24
2017-12-05T04:18:21.175Z,96.28
2017-12-05T04:20:48.903Z,96.29
2017-12-05T04:23:16.613Z,96.27
2017-12-05T04:25:44.367Z,96.28
2017-12-05T04:28:12.084Z,96.29
2017-12-05T04:30:39.802Z,96.33
2017-12-05T04:33:07.459Z,96.29
2017-12-05T04:35:37.007Z,96.29
2017-12-05T04:38:04.720Z,96.24
2017-12-05T04:40:34.227Z,96.28
2017-12-05T04:43:04.543Z,96.33
2017-12-05T04:45:33.076Z,96.37
2017-12-05T04:48:00.738Z,96.36
2017-12-05T04:50:28.421Z,96.36
2017-12-05T04:52:56.127Z,96.39
2017-12-05T04:55:26.400Z,96.44
2017-12-05T04:57:55.968Z,96.43
2017-12-05T05:00:23.668Z,96.37
2017-12-05T05:02:51.504Z,96.35
2017-12-05T05:05:19.174Z,96.32
2017-12-05T05:07:48.552Z,96.27
2017-12-05T05:10:16.317Z,96.17
2017-12-05T05:12:43.994Z,95.97
2017-12-05T05:15:12.500Z,95.93
2017-12-05T05:17:41.132Z,95.84
2017-12-05T05:20:08.834Z,95.92
2017-12-05T05:22:36.865Z,95.92
2017-12-05T05:25:04.724Z,95.91
2017-12-05T05:27:34.006Z,95.83
2017-12-05T05:30:01.738Z,95.80
2017-12-05T05:32:29.473Z,95.87
2017-12-05T05:34:57.119Z,95.81
2017-12-05T05:37:24.798Z,95.70
2017-12-05T05:39:53.286Z,95.74
2017-12-05T05:42:21.042Z,95.61
2017-12-05T05:44:48.800Z,95.71
2017-12-05T05:47:16.471Z,95.72
2017-12-05T05:49:44.261Z,95.70
2017-12-05T05:52:12.332Z,95.79
2017-12-05T05:54:40.068Z,95.79
2017-12-05T05:57:08.050Z,95.85
2017-12-05T05:59:36.531Z,96.03
2017-12-05T06:02:04.332Z,96.02
2017-12-05T06:04:32.029Z,96.10
2017-12-05T06:06:59.716Z,96.13
2017-12-05T06:09:27.372Z,96.19
2017-12-05T06:11:55.640Z,96.33
2017-12-05T06:14:23.306Z,96.38
2017-12-05T06:16:52.724Z,96.32
2017-12-05T06:19:20.528Z,96.37
2017-12-05T06:21:48.354Z,96.49
2017-12-05T06:24:16.440Z,96.42
2017-12-05T06:26:44.146Z,96.44
2017-12-05T06:29:12.895Z,96.34
2017-12-05T06:31:40.624Z,96.23
2017-12-05T06:34:08.569Z,96.31
2017-12-05T06:36:36.256Z,96.40
2017-12-05T06:39:03.930Z,96.44
2017-12-05T06:41:31.582Z,96.48
2017-12-05T06:43:59.323Z,96.35
2017-12-05T06:46:27.780Z,96.39
2017-12-05T06:48:55.430Z,96.41
2017-12-05T06:51:23.143Z,96.43
2017-12-05T06:53:50.845Z,96.40
2017-12-05T06:56:18.502Z,96.38
2017-12-05T06:58:46.173Z,96.42
2017-12-05T07:01:13.800Z,96.33
2017-12-05T07:03:41.460Z,96.35
2017-12-05T07:06:10.844Z,96.45
2017-12-05T07:08:40.498Z,96.40
2017-12-05T07:11:08.178Z,96.48
2017-12-05T07:13:35.936Z,96.47
2017-12-05T07:16:05.227Z,96.39
2017-12-05T07:18:35.802Z,96.44
2017-12-05T07:21:05.356Z,96.28
2017-12-05T07:23:35.644Z,96.34
2017-12-05T07:26:03.322Z,96.48
2017-12-05T07:28:31.056Z,96.44
2017-12-05T07:30:59.562Z,96.33
2017-12-05T07:33:27.238Z,96.29
2017-12-05T07:35:54.900Z,96.26
2017-12-05T07:38:22.570Z,96.14
2017-12-05T07:40:51.007Z,96.10
2017-12-05T07:43:21.604Z,96.05
2017-12-05T07:45:49.276Z,96.00
2017-12-05T07:48:16.951Z,95.88
2017-12-05T07:50:47.179Z,95.96
2017-12-05T07:53:14.814Z,95.82
2017-12-05T07:55:42.493Z,95.84
2017-12-05T07:58:11.192Z,95.82
2017-12-05T08:00:38.926Z,95.99
2017-12-05T08:03:07.544Z,95.85
2017-12-05T08:05:35.304Z,95.91
2017-12-05T08:08:03.102Z,95.64
2017-12-05T08:10:30.874Z,95.75
2017-12-05T08:13:00.437Z,95.72
2017-12-05T08:15:28.153Z,95.71
2017-12-05T08:17:55.790Z,95.72
2017-12-05T08:20:25.247Z,95.78
2017-12-05T08:22:52.946Z,95.32
2017-12-05T08:25:20.994Z,95.37
2017-12-05T08:27:49.421Z,95.39
2017-12-05T08:30:19.853Z,95.41
2017-12-05T08:32:48.464Z,94.85
2017-12-05T08:35:17.797Z,94.88
2017-12-05T08:37:45.505Z,94.66
2017-12-05T08:40:14.958Z,94.57
2017-12-05T08:42:45.370Z,94.52
2017-12-05T08:45:13.107Z,94.16
2017-12-05T08:47:40.955Z,94.25
2017-12-05T08:50:10.430Z,94.18
2017-12-05T08:52:38.903Z,94.05
2017-12-05T08:55:06.557Z,94.16
2017-12-05T08:57:35.997Z,94.05
2017-12-05T09:00:05.401Z,93.58
2017-12-05T09:02:33.941Z,92.88
2017-12-05T09:05:03.417Z,92.84
2017-12-05T09:07:31.152Z,92.54
2017-12-05T09:10:00.819Z,92.35
2017-12-05T09:12:29.607Z,92.08
2017-12-05T09:15:00.059Z,91.84
2017-12-05T09:17:27.699Z,92.15
2017-12-05T09:19:56.077Z,91.86
2017-12-05T09:22:25.479Z,91.13
2017-12-05T09:24:53.203Z,91.52
2017-12-05T09:27:20.904Z,91.61
2017-12-05T09:29:51.249Z,91.65
2017-12-05T09:32:19.238Z,91.64
2017-12-05T09:34:46.931Z,91.68
2017-12-05T09:37:15.721Z,91.75
2017-12-05T09:39:43.381Z,91.33
2017-12-05T09:42:11.030Z,91.36
2017-12-05T09:44:40.277Z,91.44
2017-12-05T09:47:09.672Z,91.42
2017-12-05T09:49:37.470Z,91.33
2017-12-05T09:52:05.098Z,91.15
2017-12-05T09:54:34.580Z,90.48
2017-12-05T09:57:02.326Z,91.15
2017-12-05T09:59:30.800Z,91.33
2017-12-05T10:02:00.241Z,91.04
2017-12-05T10:04:27.940Z,90.71
2017-12-05T10:06:57.225Z,90.66
2017-12-05T10:09:24.904Z,90.48
2017-12-05T10:11:54.278Z,90.06
2017-12-05T10:14:21.982Z,90.34
2017-12-05T10:16:49.615Z,90.02
2017-12-05T10:19:17.410Z,90.15
2017-12-05T10:21:48.343Z,90.06
2017-12-05T10:24:16.039Z,89.59
2017-12-05T10:26:44.413Z,89.71
2017-12-05T10:29:14.686Z,89.37
2017-12-05T10:31:42.404Z,88.94
2017-12-05T10:34:10.193Z,89.15
2017-12-05T10:36:37.861Z,89.08
2017-12-05T10:39:05.557Z,89.31
2017-12-05T10:41:34.990Z,89.25
2017-12-05T10:44:02.789Z,88.80
2017-12-05T10:46:30.448Z,88.16
2017-12-05T10:48:58.907Z,88.43
2017-12-05T10:51:31.846Z,88.30
2017-12-05T10:54:01.290Z,87.36
2017-12-05T10:56:29.016Z,87.78
2017-12-05T10:58:59.277Z,87.48
2017-12-05T11:01:27.221Z,87.44
2017-12-05T11:03:54.896Z,87.43
2017-12-05T11:06:22.569Z,87.59
2017-12-05T11:08:50.308Z,87.19
2017-12-05T11:11:18.058Z,86.61
2017-12-05T11:13:45.755Z,85.71
2017-12-05T11:16:13.453Z,85.63
2017-12-05T11:18:43.050Z,84.94
2017-12-05T11:21:10.739Z,85.35
2017-12-05T11:23:38.381Z,84.53
2017-12-05T11:26:06.071Z,84.85
2017-12-05T11:28:35.541Z,84.44
2017-12-05T11:31:04.004Z,84.73
2017-12-05T11:33:32.500Z,84.67
2017-12-05T11:36:00.915Z,83.91
2017-12-05T11:38:30.903Z,83.06
2017-12-05T11:40:59.503Z,83.94
2017-12-05T11:43:28.792Z,83.54
2017-12-05T11:45:56.497Z,83.75
2017-12-05T11:48:25.784Z,83.75
2017-12-05T11:50:55.342Z,83.42
2017-12-05T11:53:23.108Z,83.54
2017-12-05T11:55:50.806Z,83.72
2017-12-05T11:58:21.136Z,82.52
2017-12-05T12:00:48.968Z,83.23
2017-12-05T12:03:19.241Z,82.79
2017-12-05T12:05:46.947Z,83.61
2017-12-05T12:08:15.614Z,83.17
2017-12-05T12:10:43.311Z,83.05
2017-12-05T12:13:10.996Z,82.83
2017-12-05T12:15:40.464Z,82.89
2017-12-05T12:18:10.030Z,82.91
2017-12-05T12:20:37.766Z,83.07
2017-12-05T12:23:05.546Z,82.15
2017-12-05T12:25:34.035Z,82.75
2017-12-05T12:28:01.905Z,83.54
2017-12-05T12:30:29.570Z,83.01
2017-12-05T12:32:57.988Z,82.52
2017-12-05T12:35:27.393Z,81.62
2017-12-05T12:37:55.071Z,82.24
2017-12-05T12:40:25.381Z,81.69
2017-12-05T12:42:55.756Z,82.00
2017-12-05T12:45:23.448Z,83.06
2017-12-05T12:47:52.915Z,82.72
2017-12-05T12:50:22.410Z,82.83
2017-12-05T12:52:51.914Z,82.22
2017-12-05T12:55:19.639Z,82.03
2017-12-05T12:57:47.312Z,81.90
2017-12-05T13:00:16.789Z,82.12
2017-12-05T13:02:44.480Z,81.26
2017-12-05T13:05:12.249Z,82.19
2017-12-05T13:07:39.907Z,82.57
2017-12-05T13:10:10.247Z,82.42
2017-12-05T13:12:40.709Z,81.84
2017-12-05T13:15:08.455Z,82.17
2017-12-05T13:17:37.745Z,82.53
2017-12-05T13:20:09.230Z,82.57
2017-12-05T13:22:36.900Z,82.02
2017-12-05T13:25:07.591Z,82.00
2017-12-05T13:27:36.102Z,82.02
2017-12-05T13:30:03.773Z,82.17
2017-12-05T13:32:31.610Z,81.94
2017-12-05T13:35:00.132Z,82.29
2017-12-05T13:37:28.580Z,82.01
2017-12-05T13:39:58.057Z,81.92
2017-12-05T13:42:26.468Z,81.80
2017-12-05T13:44:54.220Z,82.22
2017-12-05T13:47:24.494Z,81.92
2017-12-05T13:49:52.937Z,81.97
2017-12-05T13:52:22.322Z,81.65
2017-12-05T13:54:50.102Z,81.68
2017-12-05T13:57:18.524Z,81.92
2017-12-05T13:59:46.233Z,81.92
2017-12-05T14:02:16.067Z,82.45
2017-12-05T14:04:45.539Z,81.93
2017-12-05T14:07:14.021Z,82.08
2017-12-05T14:09:41.753Z,81.62
2017-12-05T14:12:09.432Z,81.40
2017-12-05T14:14:37.145Z,81.52
2017-12-05T14:17:07.551Z,80.90
2017-12-05T14:19:37.885Z,80.90
2017-12-05T14:22:09.697Z,81.13
2017-12-05T14:24:39.051Z,81.44
2017-12-05T14:27:06.946Z,81.08
2017-12-05T14:29:38.194Z,81.35
2017-12-05T14:32:07.490Z,81.28
2017-12-05T14:34:36.919Z,81.12
2017-12-05T14:37:08.554Z,81.21
2017-12-05T14:39:36.261Z,81.39
2017-12-05T14:42:03.938Z,81.87
2017-12-05T14:44:32.386Z,82.19
2017-12-05T14:47:02.382Z,82.25
2017-12-05T14:49:30.264Z,82.33
2017-12-05T14:52:00.992Z,82.06
2017-12-05T14:54:28.952Z,82.50
2017-12-05T14:56:56.646Z,82.76
2017-12-05T14:59:28.649Z,82.89
2017-12-05T15:01:59.128Z,83.13
2017-12-05T15:04:27.011Z,82.99
2017-12-05T15:06:54.737Z,83.34
2017-12-05T15:09:22.434Z,83.57
2017-12-05T15:11:52.792Z,83.65
2017-12-05T15:14:22.200Z,83.72
2017-12-05T15:16:51.520Z,84.01
2017-12-05T15:19:19.256Z,84.14
2017-12-05T15:21:47.124Z,83.88
2017-12-05T15:24:15.335Z,84.10
2017-12-05T15:26:43.403Z,84.33
2017-12-05T15:29:11.192Z,84.36
2017-12-05T15:31:42.740Z,84.52
2017-12-05T15:34:10.686Z,84.61
2017-12-05T15:36:41.181Z,84.74
2017-12-05T15:39:08.977Z,84.90
2017-12-05T15:41:36.643Z,84.89
2017-12-05T15:44:05.161Z,84.95
2017-12-05T15:46:33.593Z,84.85
2017-12-05T15:49:01.436Z,85.21
2017-12-05T15:51:29.166Z,85.17
2017-12-05T15:53:57.032Z,85.00
2017-12-05T15:56:24.693Z,85.21
2017-12-05T15:58:54.162Z,84.97
2017-12-05T16:01:23.773Z,85.07
2017-12-05T16:03:53.515Z,85.23
2017-12-05T16:06:21.212Z,85.33
2017-12-05T16:08:51.623Z,85.18
2017-12-05T16:11:20.091Z,85.39
2017-12-05T16:13:47.786Z,85.41
2017-12-05T16:16:15.449Z,85.46
2017-12-05T16:18:43.158Z,85.27
2017-12-05T16:21:11.662Z,85.27
2017-12-05T16:23:41.054Z,85.43
2017-12-05T16:26:11.401Z,85.00
2017-12-05T16:28:40.008Z,84.99
2017-12-05T16:31:09.944Z,84.90
2017-12-05T16:33:37.623Z,84.94
2017-12-05T16:36:07.071Z,84.97
2017-12-05T16:38:36.077Z,85.21
2017-12-05T16:41:03.801Z,85.37
2017-12-05T16:43:33.125Z,85.40
2017-12-05T16:46:00.988Z,85.56
2017-12-05T16:48:29.772Z,85.51
2017-12-05T16:51:00.031Z,85.70
2017-12-05T16:53:27.736Z,85.73
2017-12-05T16:55:57.137Z,85.68
2017-12-05T16:58:25.143Z,85.68
2017-12-05T17:00:52.858Z,85.58
2017-12-05T17:03:22.190Z,85.59
2017-12-05T17:05:49.899Z,85.45
2017-12-05T17:08:19.463Z,85.55
2017-12-05T17:10:48.921Z,85.71
2017-12-05T17:13:19.352Z,85.81
2017-12-05T17:15:47.129Z,85.86
2017-12-05T17:18:16.774Z,85.89
2017-12-05T17:20:46.353Z,86.09
2017-12-05T17:23:14.052Z,86.29
2017-12-05T17:25:45.596Z,86.46
2017-12-05T17:28:13.322Z,86.43
2017-12-05T17:30:41.207Z,86.42
2017-12-05T17:33:08.932Z,86.41
2017-12-05T17:35:36.718Z,86.49
2017-12-05T17:38:06.238Z,86.52
2017-12-05T17:40:36.578Z,86.65
2017-12-05T17:43:04.469Z,86.68
2017-12-05T17:45:33.797Z,86.87
2017-12-05T17:48:01.970Z,86.89
2017-12-05T17:50:32.829Z,87.06
2017-12-05T17:53:01.065Z,87.30
2017-12-05T17:55:29.713Z,87.28
2017-12-05T17:57:58.272Z,87.28
2017-12-05T18:00:28.812Z,87.25
2017-12-05T18:02:59.187Z,87.08
2017-12-05T18:05:28.552Z,87.31
2017-12-05T18:07:57.783Z,87.38
2017-12-05T18:10:27.623Z,87.31
2017-12-05T18:12:57.073Z,87.54
2017-12-05T18:15:25.921Z,87.57
2017-12-05T18:17:55.508Z,87.67
2017-12-05T18:20:26.158Z,87.69
2017-12-05T18:22:54.423Z,87.76
2017-12-05T18:25:23.050Z,87.92
2017-12-05T18:27:51.593Z,87.90
2017-12-05T18:30:19.393Z,87.86
2017-12-05T18:32:48.949Z,87.81
2017-12-05T18:35:16.825Z,88.09
2017-12-05T18:37:46.146Z,88.08
2017-12-05T18:40:15.095Z,88.18
2017-12-05T18:42:43.022Z,88.12
2017-12-05T18:45:12.733Z,88.19
2017-12-05T18:47:43.929Z,88.22
2017-12-05T18:50:11.959Z,88.27
2017-12-05T18:52:41.440Z,88.28
2017-12-05T18:55:11.049Z,88.32
2017-12-05T18:57:39.543Z,88.15
2017-12-05T19:00:11.383Z,88.14
2017-12-05T19:02:39.380Z,88.14
2017-12-05T19:05:08.389Z,88.21
2017-12-05T19:07:36.386Z,88.14
2017-12-05T19:10:04.238Z,88.02
2017-12-05T19:12:32.196Z,87.75
2017-12-05T19:15:00.805Z,87.70
2017-12-05T19:17:30.390Z,87.37
2017-12-05T19:19:58.290Z,87.47
2017-12-05T19:22:28.716Z,87.27
2017-12-05T19:24:57.280Z,86.97
2017-12-05T19:27:25.176Z,87.09
2017-12-05T19:29:53.137Z,86.99
2017-12-05T19:32:22.898Z,86.24
2017-12-05T19:34:52.891Z,86.22
2017-12-05T19:37:20.846Z,86.30
2017-12-05T19:39:50.397Z,86.28
2017-12-05T19:42:18.591Z,86.33
2017-12-05T19:44:46.583Z,86.28
2017-12-05T19:47:16.181Z,86.38
2017-12-05T19:49:44.977Z,86.34
2017-12-05T19:52:15.826Z,86.12
2017-12-05T19:54:43.596Z,86.24
2017-12-05T19:57:12.249Z,86.02
2017-12-05T19:59:41.477Z,85.90
2017-12-05T20:02:09.364Z,85.65
2017-12-05T20:04:37.232Z,85.73
2017-12-05T20:07:05.066Z,85.73
2017-12-05T20:09:32.894Z,85.66
2017-12-05T20:12:01.958Z,85.88
2017-12-05T20:14:29.805Z,85.69
2017-12-05T20:16:57.596Z,85.60
2017-12-05T20:19:25.380Z,85.42
2017-12-05T20:21:53.187Z,85.48
2017-12-05T20:24:20.919Z,85.49
2017-12-05T20:26:48.806Z,85.30
2017-12-05T20:29:16.653Z,85.27
2017-12-05T20:31:44.437Z,85.16
2017-12-05T20:34:12.266Z,84.95
2017-12-05T20:36:39.990Z,84.91
2017-12-05T20:39:08.700Z,84.97
2017-12-05T20:41:36.485Z,84.74
2017-12-05T20:44:04.621Z,84.73
2017-12-05T20:56:18.158Z,84.58
2017-12-05T20:58:46.100Z,84.48
2017-12-05T21:01:13.938Z,84.35
2017-12-05T21:03:41.823Z,84.40
2017-12-05T21:06:09.569Z,84.57
2017-12-05T21:08:37.977Z,84.79
2017-12-05T21:11:06.490Z,84.71
2017-12-05T21:13:34.755Z,85.16
2017-12-05T21:16:02.529Z,85.00
2017-12-05T21:18:30.295Z,84.86
2017-12-05T21:20:58.096Z,84.73
2017-12-05T21:23:26.895Z,84.84
2017-12-05T21:25:54.706Z,84.70
2017-12-05T21:28:22.439Z,84.69
2017-12-05T21:30:50.192Z,84.59
2017-12-05T21:33:17.903Z,84.95
2017-12-05T21:35:46.219Z,84.80
2017-12-05T21:38:14.741Z,84.92
2017-12-05T21:40:42.448Z,84.92
2017-12-05T21:43:10.153Z,84.84
2017-12-05T21:45:37.784Z,84.86
2017-12-05T21:48:05.411Z,84.86
2017-12-05T21:50:33.123Z,84.89
2017-12-05T21:53:00.762Z,84.98
2017-12-05T21:55:28.452Z,85.33
2017-12-05T21:57:56.105Z,85.40
2017-12-05T22:00:25.730Z,85.49
2017-12-05T22:02:53.378Z,85.35
2017-12-05T22:05:21.019Z,85.17
2017-12-05T22:07:48.654Z,85.29
2017-12-05T22:10:16.301Z,85.52
2017-12-05T22:12:43.923Z,85.51
2017-12-05T22:15:11.682Z,85.53
2017-12-05T22:17:39.295Z,85.69
2017-12-05T22:20:06.958Z,85.75
2017-12-05T22:22:34.618Z,85.80
2017-12-05T22:25:02.237Z,85.90
2017-12-05T22:27:30.245Z,85.85
2017-12-05T22:29:57.887Z,85.74
2017-12-05T22:32:25.534Z,85.94
2017-12-05T22:34:53.164Z,85.87
2017-12-05T22:37:20.801Z,85.73
2017-12-05T22:39:48.409Z,85.59
2017-12-05T22:42:16.032Z,85.77
2017-12-05T22:44:43.644Z,85.52
2017-12-05T22:47:11.244Z,85.74
2017-12-05T22:49:38.819Z,85.75
2017-12-05T22:52:06.484Z,85.85
2017-12-05T22:54:34.974Z,86.03
2017-12-05T22:57:02.599Z,86.04
2017-12-05T22:59:30.164Z,86.02
2017-12-05T23:01:57.758Z,86.21
2017-12-05T23:04:25.343Z,86.29
2017-12-05T23:06:52.951Z,86.38
2017-12-05T23:09:20.563Z,86.43
2017-12-05T23:11:48.267Z,86.50
2017-12-05T23:14:15.880Z,86.51
2017-12-05T23:16:43.629Z,86.57
2017-12-05T23:19:11.248Z,86.39
2017-12-05T23:21:38.881Z,86.58
2017-12-05T23:24:06.469Z,86.55
2017-12-05T23:26:34.033Z,86.65
2017-12-05T23:29:01.627Z,86.70
2017-12-05T23:31:29.214Z,86.89
2017-12-05T23:33:56.823Z,86.95
2017-12-05T23:36:24.423Z,86.88
2017-12-05T23:38:52.193Z,86.90
2017-12-05T23:41:19.828Z,86.94
2017-12-05T23:43:47.488Z,87.08
2017-12-05T23:46:15.105Z,87.20
2017-12-05T23:48:42.755Z,87.14
2017-12-05T23:51:10.337Z,87.12
2017-12-05T23:53:38.033Z,87.17
2017-12-05T23:56:05.753Z,87.17
2017-12-05T23:58:33.501Z,87.29
